Time;durP1;ratioP1;P1;durP2;ratioP2;P2;SDS_P1;SDS_P2;PMS_P1;PMS_P2;Temp;Humidity;BMP_temperature;BMP_pressure;BME280_temperature;BME280_humidity;BME280_pressure;Samples;Min_cycle;Max_cycle;Signal;HPM_P1;HPM_P2
2023/05/26 00:00:49;;;;;;;7.43;3.83;;;13.50;99.90;;;;;;4957578;28;20023;-79
2023/05/26 00:03:16;;;;;;;10.43;4.30;;;13.50;99.90;;;;;;4973839;28;20041;-79
2023/05/26 00:05:44;;;;;;;8.60;5.10;;;13.40;99.90;;;;;;4957238;28;20290;-79
2023/05/26 00:08:10;;;;;;;9.13;4.18;;;13.40;99.90;;;;;;4958264;28;20023;-79
2023/05/26 00:10:36;;;;;;;13.93;4.45;;;13.50;99.90;;;;;;4956736;28;20439;-79
2023/05/26 00:13:01;;;;;;;9.38;4.63;;;13.50;99.90;;;;;;4975196;28;20468;-78
2023/05/26 00:15:31;;;;;;;8.70;3.30;;;13.60;99.90;;;;;;4974170;28;20603;-79
2023/05/26 00:18:01;;;;;;;;;;;13.50;99.90;;;;;;4956422;28;20034;-78
2023/05/26 00:20:27;;;;;;;6.93;3.72;;;13.60;99.90;;;;;;4972692;28;19952;-77
2023/05/26 00:22:53;;;;;;;5.55;3.05;;;13.60;99.90;;;;;;4947916;28;20476;-79
2023/05/26 00:25:18;;;;;;;5.03;3.63;;;13.60;99.90;;;;;;4939306;29;20403;-79
2023/05/26 00:27:44;;;;;;;6.38;4.10;;;13.50;99.90;;;;;;4938447;29;20031;-78
2023/05/26 00:30:10;;;;;;;9.25;3.92;;;13.50;99.90;;;;;;4956585;29;20032;-79
2023/05/26 00:32:36;;;;;;;9.95;4.15;;;13.40;99.90;;;;;;4937821;29;20043;-79
2023/05/26 00:35:03;;;;;;;6.43;3.78;;;13.30;99.90;;;;;;4939245;29;20024;-79
2023/05/26 00:37:31;;;;;;;3.90;3.50;;;13.10;99.90;;;;;;4922882;29;20054;-79
2023/05/26 00:39:56;;;;;;;8.43;4.63;;;13.00;99.90;;;;;;4922127;29;20028;-78
2023/05/26 00:42:22;;;;;;;8.68;4.32;;;12.90;99.90;;;;;;4955100;29;20078;-77
2023/05/26 00:44:51;;;;;;;10.35;4.10;;;12.90;99.90;;;;;;4937978;29;20023;-79
2023/05/26 00:47:17;;;;;;;8.65;4.07;;;12.90;99.90;;;;;;4937183;29;20031;-80
2023/05/26 00:49:43;;;;;;;6.68;3.80;;;12.90;99.90;;;;;;4936106;29;20034;-79
2023/05/26 00:52:10;;;;;;;7.95;3.55;;;12.00;99.90;;;;;;4953140;29;20027;-78
2023/05/26 00:54:37;;;;;;;9.35;3.75;;;12.80;99.90;;;;;;4935886;29;20078;-79
2023/05/26 00:57:05;;;;;;;8.20;4.53;;;12.90;99.90;;;;;;4936676;29;20039;-79
2023/05/26 00:59:31;;;;;;;8.02;4.55;;;12.80;99.90;;;;;;4954725;29;20102;-78
2023/05/26 01:01:58;;;;;;;9.60;4.18;;;12.80;99.90;;;;;;4953593;29;20031;-78
2023/05/26 01:04:24;;;;;;;10.05;4.30;;;12.80;99.90;;;;;;4935943;29;20023;-79
2023/05/26 01:06:50;;;;;;;8.70;4.10;;;12.80;99.90;;;;;;4953570;29;20050;-79
2023/05/26 01:09:17;;;;;;;7.90;3.92;;;12.80;99.90;;;;;;4936939;29;20602;-78
2023/05/26 01:11:53;;;;;;;6.05;4.22;;;12.80;99.90;;;;;;4953158;28;20163;-79
2023/05/26 01:14:37;;;;;;;6.95;4.18;;;12.70;99.90;;;;;;4936877;29;20027;-79
2023/05/26 01:17:28;;;;;;;7.75;3.72;;;12.60;99.90;;;;;;4954493;29;20122;-78
2023/05/26 01:20:20;;;;;;;9.48;3.78;;;12.60;99.90;;;;;;4920209;29;20130;-79
2023/05/26 01:22:48;;;;;;;9.15;4.00;;;12.60;99.90;;;;;;4952758;29;20024;-79
2023/05/26 01:25:28;;;;;;;9.40;4.05;;;12.60;99.90;;;;;;4952753;29;20027;-78
2023/05/26 01:28:10;;;;;;;6.55;4.15;;;12.50;99.90;;;;;;4952723;29;20039;-79
2023/05/26 01:30:36;;;;;;;7.25;3.63;;;12.60;99.90;;;;;;4936134;29;20027;-79
2023/05/26 01:33:02;;;;;;;8.80;4.60;;;12.60;99.90;;;;;;4936573;29;20399;-79
2023/05/26 01:35:28;;;;;;;17.08;4.10;;;10.40;99.90;;;;;;4937198;29;20469;-79
2023/05/26 01:37:55;;;;;;;11.25;4.05;;;12.50;99.90;;;;;;4937263;29;20041;-79
2023/05/26 01:40:21;;;;;;;8.45;4.18;;;12.50;99.90;;;;;;4955152;29;20050;-78
2023/05/26 01:42:55;;;;;;;7.03;4.22;;;12.50;99.90;;;;;;4955376;29;20031;-78
2023/05/26 01:45:25;;;;;;;8.65;4.10;;;12.50;99.90;;;;;;4936517;29;20026;-79
2023/05/26 01:47:57;;;;;;;8.02;4.72;;;12.40;99.90;;;;;;4938562;29;20448;-78
2023/05/26 01:50:29;;;;;;;10.48;5.20;;;12.30;99.90;;;;;;4939290;29;20057;-79
2023/05/26 01:52:57;;;;;;;9.98;4.82;;;12.30;99.90;;;;;;4954599;29;20034;-79
2023/05/26 01:55:26;;;;;;;14.27;4.35;;;12.30;99.90;;;;;;4936357;29;20027;-79
2023/05/26 01:57:53;;;;;;;7.37;4.93;;;12.30;99.90;;;;;;4937465;29;20130;-79
2023/05/26 02:00:26;;;;;;;10.27;4.55;;;12.30;99.90;;;;;;4939970;29;20023;-79
2023/05/26 02:02:52;;;;;;;7.20;3.97;;;12.30;99.90;;;;;;4958977;29;20571;-77
2023/05/26 02:05:18;;;;;;;12.77;4.47;;;12.20;99.90;;;;;;4943471;29;20027;-78
2023/05/26 02:07:44;;;;;;;10.57;5.40;;;;;;;;;;4935504;29;20035;-79
2023/05/26 02:10:10;;;;;;;6.30;4.38;;;12.20;99.90;;;;;;4950860;29;20114;-78
2023/05/26 02:12:36;;;;;;;6.35;4.30;;;12.20;99.90;;;;;;4935189;29;20050;-78
2023/05/26 02:15:02;;;;;;;9.90;4.80;;;12.20;99.90;;;;;;4951994;29;20415;-79
2023/05/26 02:17:28;;;;;;;8.02;4.18;;;12.20;99.90;;;;;;4952367;29;20038;-78
2023/05/26 02:19:54;;;;;;;8.98;4.75;;;12.20;99.90;;;;;;4952960;29;20026;-78
2023/05/26 02:22:19;;;;;;;7.63;4.40;;;12.20;99.90;;;;;;4935549;29;20027;-79
2023/05/26 02:24:46;;;;;;;9.13;4.50;;;12.20;99.90;;;;;;4938666;29;20027;-78
2023/05/26 02:27:12;;;;;;;14.25;4.72;;;12.10;99.90;;;;;;4938698;29;20030;-79
2023/05/26 02:29:37;;;;;;;11.07;5.38;;;12.00;99.90;;;;;;4938589;29;20023;-79
2023/05/26 02:32:03;;;;;;;7.75;4.93;;;12.00;99.90;;;;;;4955136;29;20058;-78
2023/05/26 02:34:29;;;;;;;11.15;4.93;;;11.90;99.90;;;;;;4938124;29;20122;-79
2023/05/26 02:36:55;;;;;;;5.88;3.53;;;11.90;99.90;;;;;;4938664;29;20125;-78
2023/05/26 02:39:22;;;;;;;8.38;4.57;;;11.90;99.90;;;;;;4955774;28;20047;-79
2023/05/26 02:41:47;;;;;;;12.57;5.70;;;11.90;99.90;;;;;;4956796;29;20031;-79
2023/05/26 02:44:13;;;;;;;11.10;5.13;;;11.90;99.90;;;;;;4938453;29;20071;-79
2023/05/26 02:46:39;;;;;;;12.63;5.30;;;12.00;99.90;;;;;;4938400;29;20034;-79
2023/05/26 02:49:05;;;;;;;11.60;4.75;;;12.00;99.90;;;;;;4955473;29;20507;-78
2023/05/26 02:51:33;;;;;;;9.32;5.50;;;12.10;99.90;;;;;;4956155;29;20031;-79
2023/05/26 02:53:59;;;;;;;10.38;5.28;;;;;;;;;;4938433;29;20210;-79
2023/05/26 02:56:25;;;;;;;11.35;4.70;;;12.30;99.90;;;;;;4955104;29;20054;-79
2023/05/26 02:58:51;;;;;;;8.70;4.65;;;12.40;99.90;;;;;;4939101;29;20035;-78
2023/05/26 03:01:17;;;;;;;8.65;5.35;;;;;;;;;;4939993;29;20046;-78
2023/05/26 03:03:43;;;;;;;14.13;5.45;;;12.40;99.90;;;;;;4954077;29;20085;-79
2023/05/26 03:06:08;;;;;;;14.57;4.60;;;12.50;99.90;;;;;;4937824;29;20122;-79
2023/05/26 03:08:37;;;;;;;9.13;4.55;;;12.60;99.90;;;;;;4938332;29;20027;-79
2023/05/26 03:11:03;;;;;;;9.10;4.80;;;12.60;99.90;;;;;;4955955;29;20067;-78
2023/05/26 03:13:28;;;;;;;9.73;4.45;;;12.60;99.90;;;;;;4955196;29;20027;-79
2023/05/26 03:15:54;;;;;;;10.65;5.00;;;12.60;99.90;;;;;;4937251;29;20050;-80
2023/05/26 03:18:20;;;;;;;12.55;5.30;;;12.70;99.90;;;;;;4938091;29;20403;-79
2023/05/26 03:20:46;;;;;;;11.95;4.55;;;12.60;99.90;;;;;;4957154;29;20026;-79
2023/05/26 03:23:16;;;;;;;8.30;5.15;;;12.60;99.90;;;;;;4939200;29;20058;-78
2023/05/26 03:25:42;;;;;;;10.93;5.30;;;;;;;;;;4939210;29;20484;-79
2023/05/26 03:28:08;;;;;;;11.57;5.65;;;12.60;99.90;;;;;;4956148;29;20019;-80
2023/05/26 03:30:34;;;;;;;10.98;5.70;;;;;;;;;;4956085;29;20062;-79
2023/05/26 03:33:01;;;;;;;7.30;5.18;;;12.60;99.90;;;;;;4957148;29;20054;-80
2023/05/26 03:35:26;;;;;;;7.82;4.25;;;12.60;99.90;;;;;;4959807;28;20035;-76
2023/05/26 03:37:52;;;;;;;11.98;4.95;;;12.60;99.90;;;;;;4961701;29;20156;-78
2023/05/26 03:40:18;;;;;;;8.90;5.38;;;12.60;99.90;;;;;;4942279;29;20038;-80
2023/05/26 03:42:44;;;;;;;11.65;5.47;;;;;;;;;;4941552;29;20031;-79
2023/05/26 03:45:12;;;;;;;6.00;4.70;;;12.50;99.90;;;;;;4958275;29;20436;-79
2023/05/26 03:47:38;;;;;;;7.18;5.30;;;12.50;99.90;;;;;;4944337;29;20499;-78
2023/05/26 03:50:04;;;;;;;13.25;5.43;;;12.60;99.90;;;;;;4957469;29;20031;-78
2023/05/26 03:52:30;;;;;;;13.35;6.43;;;12.60;99.90;;;;;;4938683;29;20035;-79
2023/05/26 03:54:55;;;;;;;10.95;4.45;;;12.50;99.90;;;;;;4938210;29;20029;-79
2023/05/26 03:57:21;;;;;;;8.68;5.25;;;12.50;99.90;;;;;;4938605;29;20047;-79
2023/05/26 03:59:46;;;;;;;8.60;5.20;;;12.50;99.90;;;;;;4940078;29;20051;-79
2023/05/26 04:02:12;;;;;;;10.02;5.40;;;12.60;99.90;;;;;;4941452;29;20053;-80
2023/05/26 04:04:38;;;;;;;10.45;5.55;;;12.60;99.90;;;;;;4959650;29;20491;-79
2023/05/26 04:07:04;;;;;;;11.07;4.72;;;12.60;99.90;;;;;;4959102;29;20024;-79
2023/05/26 04:09:31;;;;;;;9.75;4.78;;;12.60;99.90;;;;;;4940316;29;20054;-79
2023/05/26 04:11:57;;;;;;;10.02;4.35;;;12.60;99.90;;;;;;4941830;29;20568;-79
2023/05/26 04:14:23;;;;;;;19.15;5.70;;;12.50;99.90;;;;;;4959886;29;20142;-79
2023/05/26 04:16:50;;;;;;;8.23;4.88;;;12.40;99.90;;;;;;4938842;29;20027;-79
2023/05/26 04:19:16;;;;;;;11.65;4.97;;;12.40;99.90;;;;;;4955705;29;20534;-78
2023/05/26 04:21:42;;;;;;;11.57;5.07;;;12.40;99.90;;;;;;4956343;29;20047;-78
2023/05/26 04:24:07;;;;;;;6.55;4.95;;;12.40;99.90;;;;;;4937584;29;20114;-79
2023/05/26 04:26:33;;;;;;;15.13;4.80;;;12.40;99.90;;;;;;4954641;29;20054;-77
2023/05/26 04:29:05;;;;;;;6.70;5.05;;;12.40;99.90;;;;;;4937290;29;20423;-79
2023/05/26 04:31:31;;;;;;;10.70;4.65;;;12.40;99.90;;;;;;4937071;29;20047;-79
2023/05/26 04:33:57;;;;;;;13.27;4.70;;;12.40;99.90;;;;;;4954407;29;20090;-78
2023/05/26 04:36:25;;;;;;;8.65;5.40;;;12.30;99.90;;;;;;4945471;28;20070;-78
2023/05/26 04:38:51;;;;;;;9.57;4.90;;;12.40;99.90;;;;;;4972846;28;20073;-79
2023/05/26 04:41:18;;;;;;;10.07;5.35;;;12.40;99.90;;;;;;4972031;28;20026;-78
2023/05/26 04:43:45;;;;;;;8.80;5.25;;;12.40;99.90;;;;;;4971560;28;20027;-78
2023/05/26 04:46:11;;;;;;;8.55;4.32;;;12.50;99.90;;;;;;4971579;28;20368;-78
2023/05/26 04:48:37;;;;;;;9.52;5.25;;;12.70;99.90;;;;;;4972053;28;20023;-77
2023/05/26 04:51:04;;;;;;;10.07;5.10;;;12.90;99.90;;;;;;4971472;28;20060;-79
2023/05/26 04:53:29;;;;;;;9.20;4.43;;;13.10;99.90;;;;;;4973407;28;20047;-78
2023/05/26 04:56:01;;;;;;;13.80;5.80;;;13.20;99.90;;;;;;4975257;28;20430;-79
2023/05/26 04:58:26;;;;;;;5.80;3.88;;;13.10;99.90;;;;;;4956986;28;20081;-78
2023/05/26 05:00:53;;;;;;;8.45;4.30;;;13.10;99.90;;;;;;4956657;28;20046;-79
2023/05/26 05:03:23;;;;;;;9.75;4.93;;;13.10;99.90;;;;;;4956562;28;20121;-79
2023/05/26 05:05:48;;;;;;;8.60;4.05;;;13.00;99.90;;;;;;4956073;28;20027;-79
2023/05/26 05:08:14;;;;;;;5.78;4.53;;;13.10;99.90;;;;;;4972623;28;20061;-79
2023/05/26 05:10:40;;;;;;;8.63;5.22;;;13.20;99.90;;;;;;4955567;28;20027;-78
2023/05/26 05:13:06;;;;;;;8.55;4.80;;;13.30;99.90;;;;;;4972516;28;20057;-78
2023/05/26 05:15:32;;;;;;;9.10;4.72;;;13.30;99.90;;;;;;4954814;28;20019;-77
2023/05/26 05:18:02;;;;;;;13.75;6.45;;;13.40;99.90;;;;;;4955597;28;20065;-78
2023/05/26 05:20:28;;;;;;;8.82;4.95;;;13.50;99.90;;;;;;4973971;28;20499;-80
2023/05/26 05:22:54;;;;;;;9.27;4.65;;;13.50;99.90;;;;;;4955219;28;20027;-79
2023/05/26 05:25:20;;;;;;;7.32;4.57;;;13.50;99.90;;;;;;4953569;28;20023;-79
2023/05/26 05:27:46;;;;;;;9.02;4.57;;;13.60;99.90;;;;;;4955215;28;20023;-78
2023/05/26 05:30:12;;;;;;;12.27;5.72;;;13.70;99.90;;;;;;4955262;28;20045;-78
2023/05/26 05:32:38;;;;;;;15.10;5.20;;;;;;;;;;4955355;28;20124;-78
2023/05/26 05:35:05;;;;;;;7.78;5.28;;;13.70;99.90;;;;;;4972820;28;20049;-79
2023/05/26 05:37:30;;;;;;;10.85;5.68;;;13.60;99.90;;;;;;4970995;28;20042;-78
2023/05/26 05:39:56;;;;;;;8.85;5.85;;;13.70;99.90;;;;;;4972232;28;20154;-78
2023/05/26 05:42:24;;;;;;;10.13;6.15;;;13.80;99.90;;;;;;4955812;28;20077;-78
2023/05/26 05:44:50;;;;;;;9.90;6.50;;;;;;;;;;4956399;28;20708;-78
2023/05/26 05:47:16;;;;;;;14.55;6.32;;;;;;;;;;4957754;28;20385;-77
2023/05/26 05:49:42;;;;;;;11.52;6.15;;;;;;;;;;4956882;28;20030;-78
2023/05/26 05:52:08;;;;;;;13.57;6.22;;;13.80;99.90;;;;;;4976158;28;20081;-78
2023/05/26 05:54:34;;;;;;;12.80;6.78;;;13.70;99.90;;;;;;4980892;28;20050;-78
2023/05/26 05:57:00;;;;;;;8.40;5.40;;;13.70;99.90;;;;;;4977303;28;20035;-78
2023/05/26 05:59:25;;;;;;;10.30;5.55;;;13.80;99.90;;;;;;4975733;28;20263;-78
2023/05/26 06:01:51;;;;;;;14.00;6.28;;;13.80;99.90;;;;;;4977839;28;20661;-78
2023/05/26 06:04:17;;;;;;;11.50;6.85;;;;;;;;;;4958537;28;20116;-78
2023/05/26 06:06:43;;;;;;;16.23;6.85;;;13.70;99.90;;;;;;4957155;28;20039;-78
2023/05/26 06:09:08;;;;;;;12.30;5.85;;;14.20;99.90;;;;;;4980683;28;20027;-78
2023/05/26 06:11:34;;;;;;;12.65;6.20;;;14.60;99.90;;;;;;4976870;28;20426;-79
2023/05/26 06:14:00;;;;;;;14.95;6.53;;;14.70;99.90;;;;;;4976375;28;20033;-78
2023/05/26 06:16:25;;;;;;;10.70;6.47;;;15.60;99.90;;;;;;4974176;28;20365;-78
2023/05/26 06:18:51;;;;;;;12.10;6.65;;;14.90;99.90;;;;;;4974442;28;20034;-78
2023/05/26 06:21:17;;;;;;;11.45;6.53;;;14.70;99.90;;;;;;4957616;28;20550;-78
2023/05/26 06:23:42;;;;;;;13.70;6.25;;;14.60;99.90;;;;;;4972926;28;20023;-78
2023/05/26 06:26:08;;;;;;;11.05;5.78;;;14.50;99.90;;;;;;4971252;28;20034;-78
2023/05/26 06:28:33;;;;;;;11.15;6.25;;;14.40;99.90;;;;;;4953935;28;20030;-77
2023/05/26 06:30:59;;;;;;;16.70;5.80;;;14.40;99.90;;;;;;4973064;28;20508;-77
2023/05/26 06:33:25;;;;;;;15.05;6.57;;;14.50;99.90;;;;;;4973363;28;20023;-78
2023/05/26 06:35:51;;;;;;;11.85;5.88;;;14.50;99.90;;;;;;4955084;28;20534;-78
2023/05/26 06:38:16;;;;;;;14.02;6.03;;;14.60;99.90;;;;;;4973506;28;20089;-78
2023/05/26 06:40:42;;;;;;;11.70;6.18;;;14.90;99.90;;;;;;4972715;28;20054;-78
2023/05/26 06:43:08;;;;;;;13.80;6.80;;;15.50;99.90;;;;;;4955042;28;20053;-78
2023/05/26 06:45:33;;;;;;;9.15;5.53;;;15.60;99.90;;;;;;4954855;28;20081;-78
2023/05/26 06:47:59;;;;;;;9.85;6.18;;;16.30;99.90;;;;;;4972268;28;20081;-78
2023/05/26 06:50:25;;;;;;;9.85;6.65;;;16.70;99.90;;;;;;4971899;28;20457;-78
2023/05/26 06:52:51;;;;;;;10.27;6.10;;;;;;;;;;4956373;28;20037;-78
2023/05/26 06:55:16;;;;;;;14.45;6.53;;;17.30;99.90;;;;;;4972440;28;20078;-78
2023/05/26 06:57:43;;;;;;;11.45;5.90;;;17.80;99.90;;;;;;4973755;28;20031;-78
2023/05/26 07:00:09;;;;;;;9.88;5.22;;;18.30;99.90;;;;;;4956263;28;20479;-79
2023/05/26 07:02:35;;;;;;;13.18;6.97;;;18.50;99.50;;;;;;4973338;28;20233;-78
2023/05/26 07:05:01;;;;;;;10.88;5.28;;;18.70;97.40;;;;;;4973051;28;20179;-78
2023/05/26 07:07:26;;;;;;;9.52;5.78;;;19.10;95.60;;;;;;4973087;28;20270;-77
2023/05/26 07:09:52;;;;;;;12.35;5.50;;;19.60;93.90;;;;;;4971132;28;20026;-78
2023/05/26 07:12:19;;;;;;;11.25;5.25;;;19.80;92.70;;;;;;4955839;28;20122;-78
2023/05/26 07:14:46;;;;;;;14.93;5.80;;;20.10;91.70;;;;;;4955893;28;20046;-79
2023/05/26 07:17:12;;;;;;;11.68;6.30;;;19.90;90.50;;;;;;4955716;28;20043;-78
2023/05/26 07:19:37;;;;;;;8.27;5.65;;;19.70;92.10;;;;;;4955765;28;20023;-78
2023/05/26 07:22:04;;;;;;;20.85;5.55;;;19.90;91.20;;;;;;4972848;28;20023;-78
2023/05/26 07:24:30;;;;;;;10.75;5.63;;;20.20;89.50;;;;;;4972802;28;20023;-78
2023/05/26 07:26:56;;;;;;;11.85;6.20;;;20.20;90.10;;;;;;4955710;28;20033;-78
2023/05/26 07:29:21;;;;;;;14.18;5.93;;;20.10;88.30;;;;;;4973024;28;20053;-78
2023/05/26 07:31:47;;;;;;;15.70;6.57;;;20.30;88.50;;;;;;4972650;28;20398;-78
2023/05/26 07:34:13;;;;;;;11.90;6.28;;;19.50;89.20;;;;;;4971364;28;20033;-78
2023/05/26 07:36:38;;;;;;;13.27;6.70;;;19.70;90.70;;;;;;4972902;28;20487;-78
2023/05/26 07:39:04;;;;;;;11.73;6.75;;;19.80;89.20;;;;;;4972886;28;20035;-78
2023/05/26 07:41:30;;;;;;;11.48;6.38;;;19.90;90.10;;;;;;4973202;28;20062;-78
2023/05/26 07:43:56;;;;;;;8.73;5.05;;;19.90;88.90;;;;;;4973072;28;20062;-79
2023/05/26 07:46:22;;;;;;;23.38;5.97;;;20.20;87.90;;;;;;4972293;28;20077;-78
2023/05/26 07:48:48;;;;;;;8.45;5.35;;;20.50;86.80;;;;;;4972675;28;20038;-78
2023/05/26 07:51:15;;;;;;;11.55;5.82;;;20.70;85.20;;;;;;4972542;28;20023;-78
2023/05/26 07:53:40;;;;;;;9.98;6.28;;;21.30;83.90;;;;;;4954454;28;20102;-79
2023/05/26 07:56:06;;;;;;;10.65;6.40;;;21.80;82.70;;;;;;4972527;28;20111;-78
2023/05/26 07:58:32;;;;;;;11.00;5.10;;;21.20;82.60;;;;;;4954920;28;20070;-78
2023/05/26 08:00:57;;;;;;;14.20;5.80;;;21.20;81.80;;;;;;4972390;28;20023;-78
2023/05/26 08:03:23;;;;;;;9.32;5.45;;;21.20;81.50;;;;;;4971921;28;20110;-77
2023/05/26 08:05:49;;;;;;;12.48;6.72;;;21.30;81.50;;;;;;4971829;28;20472;-77
2023/05/26 08:08:14;;;;;;;10.80;6.75;;;21.60;81.00;;;;;;4971977;28;20385;-77
2023/05/26 08:10:40;;;;;;;8.98;5.20;;;21.70;79.50;;;;;;4972391;28;20105;-78
2023/05/26 08:13:06;;;;;;;15.32;6.90;;;21.40;79.50;;;;;;4973010;28;20042;-78
2023/05/26 08:15:32;;;;;;;13.68;6.05;;;;;;;;;;4973285;28;20041;-78
2023/05/26 08:17:57;;;;;;;12.77;6.20;;;21.10;80.80;;;;;;4972215;28;20164;-78
2023/05/26 08:20:23;;;;;;;13.27;6.25;;;21.20;81.90;;;;;;4953830;28;20507;-79
2023/05/26 08:22:49;;;;;;;15.15;6.20;;;21.10;79.50;;;;;;4972756;28;20484;-78
2023/05/26 08:25:14;;;;;;;10.93;6.47;;;21.00;81.10;;;;;;4974060;28;20037;-78
2023/05/26 08:27:41;;;;;;;12.43;6.63;;;20.40;83.30;;;;;;4975466;28;20031;-77
2023/05/26 08:30:07;;;;;;;17.50;6.85;;;20.30;86.60;;;;;;4976882;28;20022;-78
2023/05/26 08:32:34;;;;;;;13.82;6.32;;;20.10;85.10;;;;;;4972718;28;20090;-78
2023/05/26 08:34:59;;;;;;;10.88;6.50;;;20.20;83.90;;;;;;4954505;28;20319;-78
2023/05/26 08:37:26;;;;;;;12.85;6.20;;;;;;;;;;4971782;28;20046;-77
2023/05/26 08:39:52;;;;;;;16.55;7.32;;;20.90;80.40;;;;;;4971582;28;20396;-78
2023/05/26 08:42:19;;;;;;;10.93;6.18;;;20.90;80.80;;;;;;4938371;28;20066;-78
2023/05/26 08:44:45;;;;;;;10.85;6.55;;;21.10;82.60;;;;;;4972012;28;20029;-78
2023/05/26 08:47:13;;;;;;;12.27;6.22;;;20.80;81.60;;;;;;4972090;28;20029;-77
2023/05/26 08:49:46;;;;;;;11.77;7.05;;;20.60;83.10;;;;;;4954135;28;20668;-76
2023/05/26 08:52:14;;;;;;;9.30;6.10;;;20.70;82.20;;;;;;4971392;28;20031;-79
2023/05/26 08:54:40;;;;;;;12.30;6.90;;;21.20;87.20;;;;;;4971168;28;20022;-78
2023/05/26 08:57:06;;;;;;;15.05;6.82;;;21.10;83.90;;;;;;4971855;28;20553;-78
2023/05/26 08:59:33;;;;;;;18.35;6.97;;;20.60;81.00;;;;;;4971641;28;20023;-78
2023/05/26 09:02:00;;;;;;;15.90;6.55;;;20.60;82.00;;;;;;4971238;28;20523;-78
2023/05/26 09:04:29;;;;;;;9.18;5.68;;;20.40;82.60;;;;;;4971474;28;20030;-78
2023/05/26 09:06:55;;;;;;;13.18;5.47;;;20.60;83.20;;;;;;4971999;28;20259;-78
2023/05/26 09:09:21;;;;;;;11.25;5.70;;;21.00;81.90;;;;;;4971195;28;20030;-78
2023/05/26 09:11:47;;;;;;;13.05;6.07;;;21.30;82.50;;;;;;4971163;28;20101;-78
2023/05/26 09:14:15;;;;;;;15.57;7.00;;;21.80;78.10;;;;;;4970644;28;20093;-78
2023/05/26 09:16:41;;;;;;;19.05;6.30;;;22.00;75.20;;;;;;4970409;28;20090;-78
2023/05/26 09:19:11;;;;;;;15.52;6.80;;;22.50;76.10;;;;;;4970718;28;20467;-78
2023/05/26 09:21:37;;;;;;;10.93;5.78;;;22.90;72.90;;;;;;4970838;28;20239;-78
2023/05/26 09:24:03;;;;;;;11.00;5.78;;;23.10;74.10;;;;;;4970870;28;20034;-77
2023/05/26 09:26:34;;;;;;;14.85;6.00;;;22.70;72.00;;;;;;4971035;28;20481;-77
2023/05/26 09:29:01;;;;;;;10.93;5.40;;;22.30;72.60;;;;;;4971001;28;20031;-78
2023/05/26 09:31:38;;;;;;;12.68;6.22;;;22.70;70.60;;;;;;4969999;28;20046;-78
2023/05/26 09:34:04;;;;;;;9.30;5.50;;;22.70;71.20;;;;;;4943013;28;20050;-77
2023/05/26 09:36:36;;;;;;;8.40;5.68;;;21.90;72.60;;;;;;4961098;28;20023;-81
2023/05/26 09:39:05;;;;;;;8.52;4.78;;;22.00;72.70;;;;;;4952632;28;20446;-82
2023/05/26 09:41:42;;;;;;;10.27;5.70;;;22.00;73.70;;;;;;4954270;28;20474;-84
2023/05/26 09:44:13;;;;;;;16.33;6.38;;;22.70;71.20;;;;;;4954241;28;20023;-78
2023/05/26 09:46:40;;;;;;;10.70;6.45;;;23.20;71.00;;;;;;4970236;28;20123;-78
2023/05/26 09:49:13;;;;;;;9.98;6.32;;;23.10;70.10;;;;;;4952916;28;20015;-77
2023/05/26 09:51:41;;;;;;;11.10;5.57;;;22.50;72.50;;;;;;4968727;28;20290;-77
2023/05/26 09:54:08;;;;;;;8.57;5.85;;;22.60;71.50;;;;;;4952615;28;20058;-78
2023/05/26 09:57:14;;;;;;;9.57;5.80;;;22.70;73.70;;;;;;4966089;28;20006;-83
2023/05/26 09:59:41;;;;;;;10.65;5.88;;;22.40;71.70;;;;;;4952107;28;20519;-78
2023/05/26 10:02:21;;;;;;;13.20;5.88;;;23.00;73.80;;;;;;4968614;28;20534;-78
2023/05/26 10:04:49;;;;;;;12.27;6.28;;;23.00;72.00;;;;;;4955032;28;20034;-79
2023/05/26 10:07:19;;;;;;;10.25;5.85;;;22.50;71.20;;;;;;4951843;28;20595;-80
2023/05/26 10:09:55;;;;;;;11.32;6.10;;;23.30;69.60;;;;;;4953715;28;20022;-78
2023/05/26 10:12:30;;;;;;;13.88;6.00;;;23.30;71.90;;;;;;4954837;28;20038;-77
2023/05/26 10:14:56;;;;;;;12.55;5.32;;;23.10;70.50;;;;;;4954596;28;20040;-77
2023/05/26 10:17:23;;;;;;;17.58;6.15;;;23.30;71.30;;;;;;4954791;28;20031;-78
2023/05/26 10:19:49;;;;;;;11.43;5.47;;;23.10;72.40;;;;;;4954986;28;20125;-79
2023/05/26 10:22:43;;;;;;;13.63;6.53;;;23.50;70.60;;;;;;4974364;28;20015;-78
2023/05/26 10:25:28;;;;;;;17.70;6.82;;;22.80;70.90;;;;;;4960923;28;20027;-78
2023/05/26 10:28:08;;;;;;;14.90;5.50;;;23.00;71.00;;;;;;4956040;28;20023;-79
2023/05/26 10:30:36;;;;;;;13.45;6.43;;;23.90;72.30;;;;;;4953304;28;20042;-78
2023/05/26 10:33:11;;;;;;;11.90;6.10;;;24.20;67.30;;;;;;4952884;28;20042;-79
2023/05/26 10:35:38;;;;;;;9.57;5.32;;;24.30;66.90;;;;;;4953665;28;20019;-78
2023/05/26 10:38:05;;;;;;;11.57;5.00;;;24.40;68.40;;;;;;4961737;28;20039;-78
2023/05/26 10:40:33;;;;;;;14.73;6.55;;;24.10;68.30;;;;;;4972229;28;20019;-82
2023/05/26 10:43:11;;;;;;;11.27;6.05;;;24.50;69.30;;;;;;4953480;28;20069;-80
2023/05/26 10:46:01;;;;;;;12.73;6.55;;;24.10;70.10;;;;;;4957880;28;20027;-79
2023/05/26 10:48:41;;;;;;;11.65;5.60;;;24.50;66.60;;;;;;4956216;28;20081;-78
2023/05/26 10:51:14;;;;;;;10.40;5.18;;;25.20;66.20;;;;;;4973484;28;20070;-80
2023/05/26 10:53:43;;;;;;;9.80;5.63;;;25.20;65.90;;;;;;4955998;28;20023;-80
2023/05/26 10:56:12;;;;;;;9.82;5.57;;;25.60;64.90;;;;;;4973537;28;20041;-79
2023/05/26 10:58:45;;;;;;;;;;;25.60;65.50;;;;;;4957064;28;20039;-78
2023/05/26 11:01:12;;;;;;;9.02;5.10;;;25.50;65.00;;;;;;4973562;28;19933;-79
2023/05/26 11:03:48;;;;;;;17.80;6.68;;;25.10;63.20;;;;;;4973935;28;20097;-78
2023/05/26 11:06:16;;;;;;;9.32;5.78;;;24.90;63.70;;;;;;4958865;28;20049;-80
2023/05/26 11:08:49;;;;;;;21.55;6.40;;;24.80;65.40;;;;;;4957849;28;20251;-80
2023/05/26 11:11:30;;;;;;;10.27;6.50;;;25.00;63.20;;;;;;4955897;28;20113;-80
2023/05/26 11:14:10;;;;;;;10.57;4.68;;;25.10;64.40;;;;;;4973229;28;20058;-78
2023/05/26 11:16:38;;;;;;;9.32;4.95;;;25.90;64.20;;;;;;4973371;28;20046;-79
2023/05/26 11:19:07;;;;;;;7.20;4.70;;;25.50;63.70;;;;;;4973243;28;20035;-79
2023/05/26 11:21:34;;;;;;;11.60;5.25;;;25.50;63.70;;;;;;4957042;28;20050;-78
2023/05/26 11:24:01;;;;;;;7.25;5.72;;;24.90;65.40;;;;;;4956578;28;20027;-79
2023/05/26 11:26:30;;;;;;;8.80;4.90;;;25.00;64.50;;;;;;4955855;28;20038;-79
2023/05/26 11:28:56;;;;;;;11.95;5.07;;;25.00;63.60;;;;;;4955462;28;20027;-79
2023/05/26 11:31:25;;;;;;;15.23;5.85;;;25.50;63.50;;;;;;4973115;28;20039;-80
2023/05/26 11:33:52;;;;;;;7.63;5.03;;;25.50;63.90;;;;;;4956611;28;20074;-80
2023/05/26 11:36:18;;;;;;;8.68;4.78;;;25.20;66.60;;;;;;4955270;28;20035;-78
2023/05/26 11:38:56;;;;;;;10.07;5.35;;;25.80;64.10;;;;;;4955017;28;20113;-79
2023/05/26 11:41:25;;;;;;;10.35;5.82;;;25.80;63.70;;;;;;4955205;28;20086;-79
2023/05/26 11:43:53;;;;;;;9.98;6.68;;;25.90;61.80;;;;;;4972439;28;20038;-78
2023/05/26 11:46:20;;;;;;;9.60;5.53;;;26.30;59.50;;;;;;4955410;28;20027;-79
2023/05/26 11:48:46;;;;;;;13.95;5.35;;;26.90;63.40;;;;;;4972632;28;20023;-77
2023/05/26 11:51:12;;;;;;;11.88;5.47;;;27.10;60.00;;;;;;4954923;28;20094;-80
2023/05/26 11:53:40;;;;;;;15.77;5.53;;;26.70;60.80;;;;;;4955025;28;20638;-78
2023/05/26 11:56:09;;;;;;;9.23;5.38;;;26.10;60.00;;;;;;4971545;28;20049;-78
2023/05/26 11:58:38;;;;;;;8.82;5.28;;;25.90;60.50;;;;;;4954372;28;20041;-79
2023/05/26 12:01:05;;;;;;;9.70;5.00;;;26.40;61.30;;;;;;4954907;28;20479;-78
2023/05/26 12:03:36;;;;;;;8.55;5.50;;;26.50;60.30;;;;;;4954516;28;20133;-79
2023/05/26 12:06:15;;;;;;;14.15;4.80;;;26.70;59.70;;;;;;4954761;28;20035;-78
2023/05/26 12:09:03;;;;;;;13.52;5.05;;;27.00;60.20;;;;;;4954346;28;20213;-79
2023/05/26 12:11:29;;;;;;;10.30;5.10;;;27.20;59.30;;;;;;4954579;28;20034;-79
2023/05/26 12:14:10;;;;;;;10.43;4.78;;;27.20;58.60;;;;;;4954746;28;20027;-79
2023/05/26 12:16:41;;;;;;;10.70;4.97;;;27.70;58.80;;;;;;4954072;28;20027;-79
2023/05/26 12:19:18;;;;;;;6.18;4.80;;;27.40;57.60;;;;;;4971678;28;20079;-78
2023/05/26 12:21:49;;;;;;;9.93;4.85;;;27.30;58.30;;;;;;4971872;28;20023;-77
2023/05/26 12:24:29;;;;;;;8.65;5.07;;;28.00;58.10;;;;;;4971629;28;20041;-77
2023/05/26 12:26:54;;;;;;;8.98;4.68;;;28.80;56.20;;;;;;4971743;28;20062;-79
2023/05/26 12:29:20;;;;;;;7.18;4.93;;;27.90;56.40;;;;;;4971660;28;20030;-78
2023/05/26 12:31:48;;;;;;;10.40;5.65;;;27.60;56.80;;;;;;4971565;28;20105;-79
2023/05/26 12:34:17;;;;;;;10.23;5.20;;;27.60;57.30;;;;;;4953829;28;20027;-79
2023/05/26 12:36:44;;;;;;;9.15;4.50;;;27.70;58.30;;;;;;4953884;28;20023;-78
2023/05/26 12:39:10;;;;;;;9.35;4.20;;;28.80;58.20;;;;;;4953579;28;20035;-78
2023/05/26 12:41:36;;;;;;;8.73;5.05;;;29.40;54.70;;;;;;4971590;28;20035;-78
2023/05/26 12:44:02;;;;;;;14.95;4.78;;;29.70;55.50;;;;;;4956750;28;20053;-78
2023/05/26 12:46:28;;;;;;;7.18;4.22;;;29.90;55.50;;;;;;4975036;28;20026;-78
2023/05/26 12:48:55;;;;;;;7.70;4.50;;;29.50;54.80;;;;;;4971418;28;20027;-78